createdAt,value
2019-01-30T00:00:03.972Z,88.2
2019-01-30T00:01:03.425Z,87.9
2019-01-30T00:02:02.892Z,87.2
2019-01-30T00:03:03.433Z,88.2
2019-01-30T00:04:03.412Z,89.1
2019-01-30T00:05:03.698Z,90.5
2019-01-30T00:06:03.241Z,90.5
2019-01-30T00:07:03.247Z,91.2
2019-01-30T00:08:03.601Z,89.6
2019-01-30T00:09:03.455Z,89.8
2019-01-30T00:10:02.890Z,91
2019-01-30T00:11:03.053Z,91
2019-01-30T00:12:03.508Z,91
2019-01-30T00:13:03.142Z,92.4
2019-01-30T00:14:03.448Z,91.4
2019-01-30T00:15:02.918Z,91
2019-01-30T00:16:02.688Z,92.8
2019-01-30T00:17:03.529Z,91.9
2019-01-30T00:18:03.244Z,91.4
2019-01-30T00:19:04.187Z,91.4
2019-01-30T00:20:03.727Z,90.5
2019-01-30T00:21:03.056Z,91
2019-01-30T00:22:03.018Z,91.9
2019-01-30T00:23:03.581Z,93.3
2019-01-30T00:24:02.808Z,95.4
2019-01-30T00:25:03.511Z,97.3
2019-01-30T00:26:03.009Z,97.7
2019-01-30T00:27:03.464Z,97.5
2019-01-30T00:28:03.478Z,97.5
2019-01-30T00:29:02.879Z,98.4
2019-01-30T00:30:04.682Z,98
2019-01-30T00:31:04.751Z,98.9
2019-01-30T00:32:02.776Z,98.9
2019-01-30T00:33:03.161Z,99.1
2019-01-30T00:34:03.226Z,98.9
2019-01-30T00:35:02.960Z,97.7
2019-01-30T00:36:04.025Z,97.3
2019-01-30T00:37:03.181Z,97.3
2019-01-30T00:38:02.976Z,98
2019-01-30T00:39:03.239Z,96.1
2019-01-30T00:40:03.109Z,96.3
2019-01-30T00:41:03.053Z,97.5
2019-01-30T00:42:03.220Z,98.2
2019-01-30T00:43:03.057Z,98.7
2019-01-30T00:44:03.496Z,98.7
2019-01-30T00:45:03.391Z,98.7
2019-01-30T00:46:03.158Z,98.7
2019-01-30T00:47:03.695Z,98.9
2019-01-30T00:48:03.538Z,99.4
2019-01-30T00:49:03.512Z,101.5
2019-01-30T00:50:02.510Z,101.9
2019-01-30T00:51:03.408Z,102.6
2019-01-30T00:52:03.578Z,101.9
2019-01-30T00:53:03.192Z,102.4
2019-01-30T00:54:03.561Z,102.6
2019-01-30T00:55:02.993Z,101.5
2019-01-30T00:56:03.317Z,101.2
2019-01-30T00:57:03.185Z,100.3
2019-01-30T00:58:03.110Z,101.2
2019-01-30T00:59:03.182Z,100.3
2019-01-30T01:00:03.479Z,99.4
2019-01-30T01:01:03.463Z,99.4
2019-01-30T01:02:03.701Z,98.9
2019-01-30T01:03:02.965Z,98.7
2019-01-30T01:04:02.955Z,97.5
2019-01-30T01:05:02.933Z,97.5
2019-01-30T01:06:03.462Z,96.3
2019-01-30T01:07:03.328Z,94.9
2019-01-30T01:08:03.631Z,95.6
2019-01-30T01:09:03.613Z,96.1
2019-01-30T01:10:02.781Z,94.5
2019-01-30T01:11:02.864Z,94.5
2019-01-30T01:12:02.669Z,95.4
2019-01-30T01:13:03.609Z,95.4
2019-01-30T01:14:03.479Z,95.2
2019-01-30T01:15:03.395Z,94.9
2019-01-30T01:16:03.347Z,94.9
2019-01-30T01:17:02.886Z,94.9
2019-01-30T01:18:03.637Z,94.9
2019-01-30T01:19:03.451Z,94.5
2019-01-30T01:20:03.542Z,94.9
2019-01-30T01:21:02.976Z,95.4
2019-01-30T01:22:03.216Z,94.5
2019-01-30T01:23:03.171Z,92.4
2019-01-30T01:24:03.056Z,90.5
2019-01-30T01:25:02.840Z,90.7
2019-01-30T01:26:02.645Z,90
2019-01-30T01:27:03.534Z,89.8
2019-01-30T01:28:03.438Z,89.1
2019-01-30T01:29:02.754Z,89.1
2019-01-30T01:30:02.279Z,88.9
2019-01-30T01:31:03.596Z,88.2
2019-01-30T01:32:03.607Z,88.2
2019-01-30T01:33:03.441Z,87.9
2019-01-30T01:34:03.263Z,89.3
2019-01-30T01:35:03.601Z,91
2019-01-30T01:36:03.204Z,91
2019-01-30T01:37:01.835Z,91
2019-01-30T01:38:03.615Z,89.8
2019-01-30T01:39:02.895Z,89.1
2019-01-30T01:40:03.203Z,91.7
2019-01-30T01:41:03.259Z,91.7
2019-01-30T01:42:03.566Z,90.5
2019-01-30T01:43:03.762Z,90.3
2019-01-30T01:44:03.494Z,90.3
2019-01-30T01:45:03.000Z,90
2019-01-30T01:46:02.823Z,90
2019-01-30T01:47:03.281Z,90.7
2019-01-30T01:48:03.333Z,90.5
2019-01-30T01:49:03.032Z,88.6
2019-01-30T01:50:03.244Z,89.3
2019-01-30T01:51:03.642Z,88.4
2019-01-30T01:52:02.799Z,88.2
2019-01-30T01:53:03.300Z,86.5
2019-01-30T01:54:03.446Z,86.1
2019-01-30T01:55:03.039Z,86.3
2019-01-30T01:56:03.639Z,85.8
2019-01-30T01:57:03.444Z,85.4
2019-01-30T01:58:03.225Z,85.4
2019-01-30T01:59:02.907Z,85.1
2019-01-30T02:00:03.714Z,85.6
2019-01-30T02:01:02.692Z,87.9
2019-01-30T02:02:02.249Z,88.9
2019-01-30T02:03:03.047Z,88.9
2019-01-30T02:04:02.870Z,88.9
2019-01-30T02:05:03.271Z,88.6
2019-01-30T02:06:03.418Z,89.1
2019-01-30T02:07:03.696Z,89.6
2019-01-30T02:08:03.173Z,89.8
2019-01-30T02:09:03.615Z,90.3
2019-01-30T02:10:03.893Z,91.2
2019-01-30T02:11:02.868Z,91.7
2019-01-30T02:12:03.369Z,91.7
2019-01-30T02:13:03.561Z,91.7
2019-01-30T02:14:03.262Z,92.6
2019-01-30T02:15:03.456Z,94.2
2019-01-30T02:16:03.396Z,94.2
2019-01-30T02:17:03.473Z,93.8
2019-01-30T02:18:03.320Z,93.8
2019-01-30T02:19:03.402Z,94
2019-01-30T02:20:03.385Z,93.5
2019-01-30T02:21:03.768Z,92.4
2019-01-30T02:22:02.517Z,93.1
2019-01-30T02:23:03.632Z,94.9
2019-01-30T02:24:03.619Z,95.9
2019-01-30T02:25:03.122Z,93.8
2019-01-30T02:26:03.086Z,93.8
2019-01-30T02:27:03.260Z,94
2019-01-30T02:28:03.089Z,94.5
2019-01-30T02:29:03.357Z,94.2
2019-01-30T02:30:03.436Z,94.7
2019-01-30T02:31:03.371Z,94.9
2019-01-30T02:32:03.155Z,94.5
2019-01-30T02:33:03.291Z,94.2
2019-01-30T02:34:03.152Z,93.3
2019-01-30T02:35:03.022Z,92.6
2019-01-30T02:36:03.066Z,93.5
2019-01-30T02:37:03.489Z,94
2019-01-30T02:38:03.192Z,94.2
2019-01-30T02:39:03.578Z,94.2
2019-01-30T02:40:03.308Z,92.8
2019-01-30T02:41:03.620Z,91.9
2019-01-30T02:42:03.101Z,92.1
2019-01-30T02:43:03.046Z,92.1
2019-01-30T02:44:02.800Z,92.4
2019-01-30T02:45:02.852Z,93.8
2019-01-30T02:46:03.422Z,94
2019-01-30T02:47:03.378Z,93.5
2019-01-30T02:48:03.456Z,93.1
2019-01-30T02:49:03.491Z,92.4
2019-01-30T02:50:02.875Z,93.1
2019-01-30T02:51:03.181Z,93.1
2019-01-30T02:52:03.131Z,94.5
2019-01-30T02:53:02.756Z,96.1
2019-01-30T02:54:03.437Z,96.8
2019-01-30T02:55:03.722Z,97.7
2019-01-30T02:56:03.309Z,98.4
2019-01-30T02:57:03.666Z,98.4
2019-01-30T02:58:03.156Z,97.5
2019-01-30T02:59:03.306Z,98
2019-01-30T03:00:03.381Z,98
2019-01-30T03:01:02.396Z,95.9
2019-01-30T03:02:03.585Z,95.9
2019-01-30T03:03:02.657Z,96.8
2019-01-30T03:04:02.554Z,96.6
2019-01-30T03:05:03.229Z,96.8
2019-01-30T03:06:03.424Z,96.6
2019-01-30T03:07:02.675Z,97.5
2019-01-30T03:08:02.636Z,97.3
2019-01-30T03:09:02.708Z,96.6
2019-01-30T03:10:03.759Z,95.4
2019-01-30T03:11:03.351Z,94.2
2019-01-30T03:12:02.964Z,92.6
2019-01-30T03:13:03.111Z,91.9
2019-01-30T03:14:03.659Z,91.7
2019-01-30T03:15:03.091Z,90.7
2019-01-30T03:16:03.365Z,91.7
2019-01-30T03:17:03.266Z,91
2019-01-30T03:18:03.024Z,91.2
2019-01-30T03:19:03.606Z,91.2
2019-01-30T03:20:03.790Z,91
2019-01-30T03:21:02.818Z,93.1
2019-01-30T03:22:03.007Z,94
2019-01-30T03:23:03.018Z,94.2
2019-01-30T03:24:03.090Z,93.5
2019-01-30T03:25:03.076Z,94
2019-01-30T03:26:02.858Z,93.3
2019-01-30T03:27:02.808Z,92.4
2019-01-30T03:28:02.655Z,91.4
2019-01-30T03:29:03.465Z,92.1
2019-01-30T03:30:02.874Z,92.1
2019-01-30T03:31:19.656Z,92.1
2019-01-30T03:32:03.361Z,93.1
2019-01-30T03:33:03.138Z,94
2019-01-30T03:34:03.522Z,92.8
2019-01-30T03:35:03.455Z,92.8
2019-01-30T03:36:02.763Z,91.9
2019-01-30T03:37:03.133Z,92.6
2019-01-30T03:38:03.779Z,92.6
2019-01-30T03:39:03.775Z,94.2
2019-01-30T03:40:03.692Z,93.8
2019-01-30T03:41:03.680Z,93.5
2019-01-30T03:42:02.789Z,93.8
2019-01-30T03:43:02.773Z,94.9
2019-01-30T03:44:03.762Z,95.2
2019-01-30T03:45:02.976Z,94.5
2019-01-30T03:46:03.653Z,94.9
2019-01-30T03:47:03.427Z,94.5
2019-01-30T03:48:03.259Z,94.7
2019-01-30T03:49:03.109Z,94.2
2019-01-30T03:50:03.429Z,93.8
2019-01-30T03:51:03.384Z,93.3
2019-01-30T03:52:02.098Z,92.4
2019-01-30T03:53:03.105Z,92.4
2019-01-30T03:54:02.974Z,91.9
2019-01-30T03:55:03.291Z,91
2019-01-30T03:56:03.049Z,91.2
2019-01-30T03:57:03.577Z,91.9
2019-01-30T03:58:03.091Z,92.6
2019-01-30T03:59:03.546Z,93.3
2019-01-30T04:00:03.562Z,94
2019-01-30T04:01:03.566Z,94.5
2019-01-30T04:02:03.428Z,94.5
2019-01-30T04:03:02.915Z,94.9
2019-01-30T04:04:03.608Z,95.9
2019-01-30T04:05:04.035Z,94.9
2019-01-30T04:06:02.975Z,95.4
2019-01-30T04:07:03.067Z,94
2019-01-30T04:08:03.455Z,94.7
2019-01-30T04:09:03.365Z,95.2
2019-01-30T04:10:02.727Z,94.9
2019-01-30T04:11:03.178Z,96.8
2019-01-30T04:12:03.424Z,97
2019-01-30T04:13:02.692Z,96.8
2019-01-30T04:14:03.117Z,96.1
2019-01-30T04:15:04.006Z,96.8
2019-01-30T04:16:03.549Z,96.1
2019-01-30T04:17:03.508Z,97.5
2019-01-30T04:18:03.437Z,97.5
2019-01-30T04:19:02.804Z,98.7
2019-01-30T04:20:03.726Z,98.4
2019-01-30T04:21:03.619Z,97.7
2019-01-30T04:22:02.886Z,96.8
2019-01-30T04:23:03.576Z,96.3
2019-01-30T04:24:03.727Z,97
2019-01-30T04:25:03.548Z,97
2019-01-30T04:26:03.109Z,98.4
2019-01-30T04:27:03.403Z,99.1
2019-01-30T04:28:03.290Z,99.8
2019-01-30T04:29:03.094Z,99.6
2019-01-30T04:30:03.000Z,100.5
2019-01-30T04:31:03.524Z,100.3
2019-01-30T04:32:03.414Z,99.6
2019-01-30T04:33:03.500Z,98.4
2019-01-30T04:34:02.875Z,99.1
2019-01-30T04:35:03.188Z,99.1
2019-01-30T04:36:03.580Z,99.4
2019-01-30T04:37:03.098Z,97.7
2019-01-30T04:38:02.663Z,97
2019-01-30T04:39:03.488Z,97.7
2019-01-30T04:40:03.459Z,98.9
2019-01-30T04:41:02.943Z,100.3
2019-01-30T04:42:03.693Z,100.5
2019-01-30T04:43:03.388Z,100.5
2019-01-30T04:44:01.755Z,98.4
2019-01-30T04:45:03.141Z,96.6
2019-01-30T04:46:03.560Z,96.1
2019-01-30T04:47:02.890Z,97.5
2019-01-30T04:48:03.381Z,97.3
2019-01-30T04:49:03.395Z,98
2019-01-30T04:50:02.841Z,98.2
2019-01-30T04:51:02.763Z,98.7
2019-01-30T04:52:02.801Z,99.6
2019-01-30T04:53:03.357Z,100.5
2019-01-30T04:54:02.808Z,100.3
2019-01-30T04:55:02.938Z,99.4
2019-01-30T04:56:03.240Z,98.7
2019-01-30T04:57:03.050Z,98.7
2019-01-30T04:58:03.495Z,98
2019-01-30T04:59:02.635Z,97.5
2019-01-30T05:00:03.447Z,95.6
2019-01-30T05:01:02.532Z,94.2
2019-01-30T05:02:03.718Z,93.8
2019-01-30T05:03:03.389Z,93.1
2019-01-30T05:04:04.357Z,94
2019-01-30T05:05:03.146Z,94.9
2019-01-30T05:06:03.815Z,94.9
2019-01-30T05:07:03.040Z,94.9
2019-01-30T05:08:02.930Z,94
2019-01-30T05:09:03.470Z,93.8
2019-01-30T05:10:02.981Z,95.2
2019-01-30T05:11:03.512Z,93.8
2019-01-30T05:12:03.547Z,94.5
2019-01-30T05:13:03.029Z,94.9
2019-01-30T05:14:02.889Z,96.3
2019-01-30T05:15:03.334Z,95.6
2019-01-30T05:16:03.121Z,94.7
2019-01-30T05:17:03.073Z,94.7
2019-01-30T05:18:03.737Z,94.2
2019-01-30T05:19:03.719Z,93.3
2019-01-30T05:20:03.755Z,93.1
2019-01-30T05:21:03.639Z,91.7
2019-01-30T05:22:03.444Z,91
2019-01-30T05:23:03.073Z,90.3
2019-01-30T05:24:03.670Z,89.6
2019-01-30T05:25:03.579Z,90
2019-01-30T05:26:03.201Z,91.2
2019-01-30T05:27:03.645Z,91.2
2019-01-30T05:28:03.447Z,91
2019-01-30T05:29:03.669Z,91.7
2019-01-30T05:30:02.860Z,90
2019-01-30T05:31:03.124Z,90.3
2019-01-30T05:32:03.041Z,90
2019-01-30T05:33:03.479Z,90.7
2019-01-30T05:34:02.848Z,90.7
2019-01-30T05:35:03.214Z,90.7
2019-01-30T05:36:02.878Z,91.7
2019-01-30T05:37:03.497Z,91.7
2019-01-30T05:38:03.372Z,94
2019-01-30T05:39:03.648Z,92.8
2019-01-30T05:40:03.696Z,91.2
2019-01-30T05:41:03.323Z,91.4
2019-01-30T05:42:02.935Z,91.7
2019-01-30T05:43:03.704Z,90.7
2019-01-30T05:44:02.811Z,91.7
2019-01-30T05:45:02.935Z,92.6
2019-01-30T05:46:02.556Z,92.1
2019-01-30T05:47:03.322Z,91.9
2019-01-30T05:48:03.231Z,92.8
2019-01-30T05:49:03.395Z,93.1
2019-01-30T05:50:03.170Z,93.5
2019-01-30T05:51:03.196Z,93.8
2019-01-30T05:52:02.981Z,92.8
2019-01-30T05:53:03.212Z,92.1
2019-01-30T05:54:03.124Z,91.4
2019-01-30T05:55:03.695Z,91.4
2019-01-30T05:56:03.662Z,93.8
2019-01-30T05:57:03.152Z,93.5
2019-01-30T05:58:03.350Z,93.5
2019-01-30T05:59:03.400Z,94.5
2019-01-30T06:00:03.220Z,94.7
2019-01-30T06:01:02.754Z,95.2
2019-01-30T06:02:12.694Z,94
2019-01-30T06:03:02.550Z,95.2
2019-01-30T06:04:03.081Z,94.5
2019-01-30T06:05:02.918Z,95.6
2019-01-30T06:06:03.381Z,95.6
2019-01-30T06:07:03.456Z,97.7
2019-01-30T06:08:03.495Z,98.2
2019-01-30T06:09:03.605Z,96.8
2019-01-30T06:10:02.899Z,96.3
2019-01-30T06:11:02.878Z,96.8
2019-01-30T06:12:03.303Z,97
2019-01-30T06:13:02.563Z,96.3
2019-01-30T06:14:03.027Z,96.3
2019-01-30T06:15:03.222Z,97
2019-01-30T06:16:02.697Z,98.4
2019-01-30T06:17:02.952Z,98.9
2019-01-30T06:18:03.619Z,98.9
2019-01-30T06:19:03.114Z,98.7
2019-01-30T06:20:02.862Z,98.7
2019-01-30T06:21:03.939Z,99.1
2019-01-30T06:22:02.956Z,99.1
2019-01-30T06:23:03.143Z,99.4
2019-01-30T06:24:02.977Z,99.4
2019-01-30T06:25:03.094Z,101
2019-01-30T06:26:02.787Z,100.5
2019-01-30T06:27:03.207Z,98.4
2019-01-30T06:28:03.513Z,98.9
2019-01-30T06:29:03.759Z,98.9
2019-01-30T06:30:03.562Z,99.1
2019-01-30T06:31:03.032Z,98.9
2019-01-30T06:32:03.325Z,100.8
2019-01-30T06:33:03.396Z,100.8
2019-01-30T06:34:03.502Z,101.2
2019-01-30T06:35:02.746Z,101.7
2019-01-30T06:36:02.753Z,101
2019-01-30T06:37:02.927Z,101
2019-01-30T06:38:03.542Z,100.1
2019-01-30T06:39:02.801Z,99.8
2019-01-30T06:40:02.560Z,99.8
2019-01-30T06:41:03.279Z,99.8
2019-01-30T06:42:03.067Z,99.8
2019-01-30T06:43:04.026Z,99.1
2019-01-30T06:44:03.499Z,100.3
2019-01-30T06:45:03.428Z,99.8
2019-01-30T06:46:03.252Z,99.8
2019-01-30T06:47:02.920Z,100.8
2019-01-30T06:48:03.507Z,99.4
2019-01-30T06:49:02.832Z,99.4
2019-01-30T06:50:03.420Z,98.9
2019-01-30T06:51:02.995Z,98.4
2019-01-30T06:52:03.201Z,97.5
2019-01-30T06:53:03.477Z,97.5
2019-01-30T06:54:03.513Z,97.3
2019-01-30T06:55:02.957Z,98.2
2019-01-30T06:56:03.718Z,98.2
2019-01-30T06:57:02.726Z,98
2019-01-30T06:58:03.686Z,97.7
2019-01-30T06:59:02.987Z,97
2019-01-30T07:00:04.114Z,97
2019-01-30T07:01:02.794Z,98
2019-01-30T07:02:03.374Z,98
2019-01-30T07:03:02.818Z,99.8
2019-01-30T07:04:03.180Z,99.6
2019-01-30T07:05:02.871Z,100.3
2019-01-30T07:06:02.741Z,100.3
2019-01-30T07:07:02.873Z,100.8
2019-01-30T07:08:03.502Z,100.8
2019-01-30T07:09:03.377Z,101
2019-01-30T07:10:03.335Z,102.4
2019-01-30T07:11:11.156Z,102.4
2019-01-30T07:12:03.764Z,102.2
2019-01-30T07:13:03.679Z,102.2
2019-01-30T07:14:03.263Z,101.2
2019-01-30T07:15:03.389Z,101.2
2019-01-30T07:16:03.122Z,99.4
2019-01-30T07:17:02.990Z,100.8
2019-01-30T07:18:03.194Z,97.7
2019-01-30T07:19:03.473Z,99.1
2019-01-30T07:20:03.461Z,99.1
2019-01-30T07:21:02.749Z,100.3
2019-01-30T07:22:03.129Z,99.4
2019-01-30T07:23:03.660Z,98.7
2019-01-30T07:24:03.420Z,98.7
2019-01-30T07:25:03.616Z,99.1
2019-01-30T07:26:03.764Z,99.4
2019-01-30T07:27:03.557Z,99.8
2019-01-30T07:28:02.862Z,99.8
2019-01-30T07:29:03.133Z,101
2019-01-30T07:30:03.653Z,100.1
2019-01-30T07:31:03.098Z,100.1
2019-01-30T07:32:02.980Z,100.1
2019-01-30T07:33:03.754Z,98.9
2019-01-30T07:34:03.622Z,97
2019-01-30T07:35:03.742Z,97
2019-01-30T07:36:02.694Z,97.7
2019-01-30T07:37:03.009Z,97.7
2019-01-30T07:38:03.238Z,95.6
2019-01-30T07:39:03.272Z,95.6
2019-01-30T07:40:03.069Z,94.9
2019-01-30T07:41:03.347Z,93.5
2019-01-30T07:42:03.504Z,93.1
2019-01-30T07:43:03.119Z,93.3
2019-01-30T07:44:02.827Z,94.2
2019-01-30T07:45:02.931Z,93.5
2019-01-30T07:46:02.856Z,94.5
2019-01-30T07:47:03.540Z,95.9
2019-01-30T07:48:03.680Z,95.9
2019-01-30T07:49:02.934Z,95.6
2019-01-30T07:50:03.785Z,98.2
2019-01-30T07:51:03.634Z,97.7
2019-01-30T07:52:02.987Z,97.7
2019-01-30T07:53:02.938Z,98.4
2019-01-30T07:54:03.062Z,97.5
2019-01-30T07:55:03.462Z,97.5
2019-01-30T07:56:03.666Z,95.2
2019-01-30T07:57:03.032Z,94.9
2019-01-30T07:58:06.095Z,95.2
2019-01-30T07:59:03.211Z,95.2
2019-01-30T08:00:03.637Z,94.5
2019-01-30T08:01:02.647Z,93.3
2019-01-30T08:02:03.598Z,93.3
2019-01-30T08:03:03.139Z,93.3
2019-01-30T08:04:03.546Z,91.7
2019-01-30T08:05:03.847Z,90.7
2019-01-30T08:06:02.942Z,88.9
2019-01-30T08:07:03.533Z,88.2
2019-01-30T08:08:02.839Z,88.2
2019-01-30T08:09:03.709Z,88.2
2019-01-30T08:10:03.068Z,88.2
2019-01-30T08:11:03.576Z,88.6
2019-01-30T08:12:03.087Z,88.6
2019-01-30T08:13:03.026Z,89.6
2019-01-30T08:14:03.589Z,88.2
2019-01-30T08:15:03.846Z,89.3
2019-01-30T08:16:03.610Z,90.5
2019-01-30T08:17:03.210Z,91.2
2019-01-30T08:18:03.087Z,91.2
2019-01-30T08:19:02.938Z,91.2
2019-01-30T08:20:03.353Z,92.1
2019-01-30T08:21:03.654Z,92.1
2019-01-30T08:22:02.810Z,92.8
2019-01-30T08:23:03.538Z,92.6
2019-01-30T08:24:03.744Z,92.8
2019-01-30T08:25:03.361Z,92.8
2019-01-30T08:26:03.834Z,92.8
2019-01-30T08:27:04.011Z,92.1
2019-01-30T08:28:03.485Z,93.1
2019-01-30T08:29:02.377Z,91.9
2019-01-30T08:30:03.768Z,91.9
2019-01-30T08:31:04.270Z,92.4
2019-01-30T08:32:03.308Z,92.8
2019-01-30T08:33:06.192Z,92.8
2019-01-30T08:34:03.178Z,93.1
2019-01-30T08:35:03.390Z,93.5
2019-01-30T08:36:03.736Z,91.7
2019-01-30T08:37:02.846Z,93.1
2019-01-30T08:38:03.086Z,94.7
2019-01-30T08:39:02.869Z,96.1
2019-01-30T08:40:03.333Z,98.7
2019-01-30T08:41:03.461Z,98.7
2019-01-30T08:42:03.409Z,99.6
2019-01-30T08:43:03.687Z,99.6
2019-01-30T08:44:02.996Z,99.4
2019-01-30T08:45:03.156Z,99.1
2019-01-30T08:46:03.805Z,98.2
2019-01-30T08:47:03.309Z,97.7
2019-01-30T08:48:03.163Z,96.6
2019-01-30T08:49:03.084Z,94
2019-01-30T08:50:03.347Z,94
2019-01-30T08:51:02.933Z,93.5
2019-01-30T08:52:02.977Z,93.5
2019-01-30T08:53:03.759Z,94
2019-01-30T08:54:02.728Z,94.2
2019-01-30T08:55:03.080Z,94.9
2019-01-30T08:56:02.910Z,95.4
2019-01-30T08:57:03.164Z,95.2
2019-01-30T08:58:03.226Z,95.2
2019-01-30T08:59:06.202Z,95.2
2019-01-30T09:00:03.702Z,96.1
2019-01-30T09:01:02.957Z,96.1
2019-01-30T09:02:03.297Z,98.2
2019-01-30T09:03:02.993Z,98
2019-01-30T09:04:03.354Z,98
2019-01-30T09:05:03.643Z,97.5
2019-01-30T09:06:03.743Z,97.3
2019-01-30T09:07:02.867Z,96.6
2019-01-30T09:08:03.544Z,95.6
2019-01-30T09:09:03.389Z,95.4
2019-01-30T09:10:03.414Z,94.2
2019-01-30T09:11:03.487Z,94
2019-01-30T09:12:02.849Z,94
2019-01-30T09:13:03.251Z,92.8
2019-01-30T09:14:03.075Z,92.8
2019-01-30T09:15:03.366Z,93.3
2019-01-30T09:16:02.835Z,92.4
2019-01-30T09:17:08.866Z,92.4
2019-01-30T09:18:03.118Z,91.7
2019-01-30T09:19:03.686Z,90.7
2019-01-30T09:20:03.002Z,89.3
2019-01-30T09:21:03.272Z,89.3
2019-01-30T09:22:02.981Z,88.6
2019-01-30T09:23:03.383Z,88.2
2019-01-30T09:24:03.411Z,86.8
2019-01-30T09:25:03.234Z,86.8
2019-01-30T09:26:03.664Z,85.8
2019-01-30T09:27:02.785Z,83.7
2019-01-30T09:28:03.124Z,83.7
2019-01-30T09:29:03.250Z,84
2019-01-30T09:30:03.113Z,84.2
2019-01-30T09:31:03.176Z,84
2019-01-30T09:32:03.045Z,84.4
2019-01-30T09:33:03.407Z,85.4
2019-01-30T09:34:03.730Z,85.6
2019-01-30T09:35:03.805Z,83.7
2019-01-30T09:36:02.844Z,83.7
2019-01-30T09:37:02.761Z,83.7
2019-01-30T09:38:02.858Z,85.8
2019-01-30T09:39:02.967Z,83.7
2019-01-30T09:40:03.042Z,84
2019-01-30T09:41:03.534Z,82.8
2019-01-30T09:42:02.796Z,82.1
2019-01-30T09:43:03.410Z,83.3
2019-01-30T09:44:02.970Z,82.8
2019-01-30T09:45:03.297Z,82.8
2019-01-30T09:46:03.315Z,80.9
2019-01-30T09:47:02.750Z,80.9
2019-01-30T09:48:02.940Z,82.6
2019-01-30T09:49:03.221Z,79.8
2019-01-30T09:50:03.787Z,82.3
2019-01-30T09:51:03.648Z,83.3
2019-01-30T09:52:03.068Z,82.3
2019-01-30T09:53:03.021Z,81.9
2019-01-30T09:54:03.515Z,81.9
2019-01-30T09:55:03.203Z,83
2019-01-30T09:56:03.505Z,83
2019-01-30T09:57:03.019Z,82.3
2019-01-30T09:58:03.508Z,83
2019-01-30T09:59:03.480Z,84.2
2019-01-30T10:00:03.306Z,82.8
2019-01-30T10:01:03.063Z,84.4
2019-01-30T10:02:02.924Z,83.7
2019-01-30T10:03:02.846Z,83.7
2019-01-30T10:04:03.268Z,83.7
2019-01-30T10:05:02.878Z,83.7
2019-01-30T10:06:02.828Z,83.3
2019-01-30T10:07:03.539Z,83.3
2019-01-30T10:08:02.947Z,83.3
2019-01-30T10:09:03.097Z,82.1
2019-01-30T10:10:03.247Z,82.1
2019-01-30T10:11:03.418Z,82.3
2019-01-30T10:12:03.352Z,82.1
2019-01-30T10:13:03.130Z,83.5
2019-01-30T10:14:02.901Z,83
2019-01-30T10:15:02.727Z,84.4
2019-01-30T10:16:03.342Z,84
2019-01-30T10:17:02.656Z,86.8
2019-01-30T10:18:03.092Z,86.8
2019-01-30T10:19:02.990Z,87.7
2019-01-30T10:20:03.724Z,87.7
2019-01-30T10:21:02.829Z,88.4
2019-01-30T10:22:03.117Z,88.6
2019-01-30T10:23:03.576Z,89.6
2019-01-30T10:24:02.943Z,88.4
2019-01-30T10:25:02.822Z,90
2019-01-30T10:26:03.115Z,90.3
2019-01-30T10:27:02.939Z,90.3
2019-01-30T10:28:02.941Z,93.1
2019-01-30T10:29:02.696Z,93.1
2019-01-30T10:30:03.152Z,95.2
2019-01-30T10:31:02.917Z,95.2
2019-01-30T10:32:03.663Z,95.4
2019-01-30T10:33:03.763Z,94.5
2019-01-30T10:34:03.692Z,94.5
2019-01-30T10:35:02.890Z,93.3
2019-01-30T10:36:03.707Z,93.1
2019-01-30T10:37:03.938Z,93.8
2019-01-30T10:38:02.832Z,94.7
2019-01-30T10:39:04.027Z,94.7
2019-01-30T10:40:02.977Z,92.4
2019-01-30T10:41:02.981Z,95.4
2019-01-30T10:42:03.456Z,94.5
2019-01-30T10:43:02.850Z,95.2
2019-01-30T10:44:03.046Z,94.2
2019-01-30T10:45:03.520Z,94.7
2019-01-30T10:46:03.247Z,94.7
2019-01-30T10:47:03.010Z,95.9
2019-01-30T10:48:02.708Z,96.1
2019-01-30T10:49:03.621Z,95.9
2019-01-30T10:50:03.524Z,96.6
2019-01-30T10:51:03.283Z,97
2019-01-30T10:52:03.008Z,99.1
2019-01-30T10:53:03.504Z,97.3
2019-01-30T10:54:03.669Z,98
2019-01-30T10:55:02.931Z,97
2019-01-30T10:56:03.679Z,97.3
2019-01-30T10:57:03.098Z,97
2019-01-30T10:58:03.451Z,96.6
2019-01-30T10:59:03.460Z,98.4
2019-01-30T11:00:03.119Z,96.1
2019-01-30T11:01:04.067Z,97
2019-01-30T11:02:03.463Z,97.3
2019-01-30T11:03:03.114Z,98
2019-01-30T11:04:03.052Z,97.3
2019-01-30T11:05:02.756Z,97.5
2019-01-30T11:06:03.547Z,98.4
2019-01-30T11:07:03.113Z,99.8
2019-01-30T11:08:03.715Z,98.7
2019-01-30T11:09:03.063Z,101
2019-01-30T11:10:02.810Z,99.8
2019-01-30T11:11:08.497Z,100.8
2019-01-30T11:12:02.800Z,99.6
2019-01-30T11:13:03.353Z,99.6
2019-01-30T11:14:03.436Z,98
2019-01-30T11:15:03.484Z,98
2019-01-30T11:16:02.951Z,97.3
2019-01-30T11:17:02.960Z,97.3
2019-01-30T11:18:03.549Z,95.6
2019-01-30T11:19:03.399Z,95.9
2019-01-30T11:20:03.765Z,94.9
2019-01-30T11:21:06.285Z,96.1
2019-01-30T11:22:02.797Z,95.2
2019-01-30T11:23:03.183Z,97.3
2019-01-30T11:24:03.438Z,96.6
2019-01-30T11:25:05.775Z,97.3
2019-01-30T11:26:03.377Z,99.1
2019-01-30T11:27:02.810Z,98.2
2019-01-30T11:28:03.859Z,97.3
2019-01-30T11:29:02.787Z,95.4
2019-01-30T11:30:03.069Z,94
2019-01-30T11:31:03.655Z,92.4
2019-01-30T11:32:03.216Z,91.7
2019-01-30T11:33:03.597Z,91.4
2019-01-30T11:34:08.161Z,91.7
2019-01-30T11:35:02.911Z,91
2019-01-30T11:36:02.753Z,91.9
2019-01-30T11:37:03.743Z,92.1
2019-01-30T11:38:03.006Z,90.7
2019-01-30T11:39:03.374Z,90.7
2019-01-30T11:40:03.774Z,89.1
2019-01-30T11:41:03.494Z,90.3
2019-01-30T11:42:03.508Z,88.6
2019-01-30T11:43:03.182Z,89.6
2019-01-30T11:44:03.759Z,90.5
2019-01-30T11:45:03.113Z,90.5
2019-01-30T11:46:03.309Z,90.5
2019-01-30T11:47:03.449Z,91
2019-01-30T11:48:03.163Z,90.7
2019-01-30T11:49:03.024Z,90.7
2019-01-30T11:50:03.403Z,90.5
2019-01-30T11:51:03.204Z,87.5
2019-01-30T11:52:02.864Z,89.8
2019-01-30T11:53:03.329Z,90.3
2019-01-30T11:54:03.551Z,90
2019-01-30T11:55:03.330Z,89.8
2019-01-30T11:56:03.241Z,93.8
2019-01-30T11:57:03.285Z,91
2019-01-30T11:58:02.929Z,92.4
2019-01-30T11:59:02.698Z,92.4
2019-01-30T12:00:03.344Z,91.4
2019-01-30T12:01:03.779Z,91.4
2019-01-30T12:02:02.687Z,92.4
2019-01-30T12:03:03.121Z,90.3
2019-01-30T12:04:02.577Z,91.4
2019-01-30T12:05:03.288Z,89.3
2019-01-30T12:06:03.178Z,91.7
2019-01-30T12:07:03.073Z,90
2019-01-30T12:08:02.931Z,90.3
2019-01-30T12:09:02.836Z,91
2019-01-30T12:10:03.111Z,91.2
2019-01-30T12:11:03.071Z,92.1
2019-01-30T12:12:03.183Z,93.5
2019-01-30T12:13:03.084Z,93.5
2019-01-30T12:14:02.899Z,93.8
2019-01-30T12:15:03.251Z,93.8
2019-01-30T12:16:03.072Z,93.5
2019-01-30T12:17:03.408Z,94.5
2019-01-30T12:18:02.770Z,93.5
2019-01-30T12:19:03.270Z,93.8
2019-01-30T12:20:02.947Z,92.8
2019-01-30T12:21:02.747Z,94.7
2019-01-30T12:22:03.042Z,92.1
2019-01-30T12:23:03.350Z,94
2019-01-30T12:24:02.777Z,92.4
2019-01-30T12:25:03.263Z,90.3
2019-01-30T12:26:03.059Z,92.6
2019-01-30T12:27:03.285Z,92.6
2019-01-30T12:28:02.883Z,91.7
2019-01-30T12:29:03.443Z,91.4
2019-01-30T12:30:03.748Z,93.5
2019-01-30T12:31:03.071Z,95.4
2019-01-30T12:32:02.645Z,93.1
2019-01-30T12:33:02.851Z,95.9
2019-01-30T12:34:03.059Z,96.8
2019-01-30T12:35:03.661Z,96.1
2019-01-30T12:36:03.294Z,96.6
2019-01-30T12:37:03.076Z,99.1
2019-01-30T12:38:02.774Z,98.7
2019-01-30T12:39:03.022Z,98.2
2019-01-30T12:40:03.528Z,98.2
2019-01-30T12:41:03.302Z,98.2
2019-01-30T12:42:03.355Z,98.2
2019-01-30T12:43:03.250Z,99.4
2019-01-30T12:44:03.507Z,98.9
2019-01-30T12:45:03.391Z,98.2
2019-01-30T12:46:02.860Z,97.7
2019-01-30T12:47:03.560Z,98.2
2019-01-30T12:48:03.234Z,98
2019-01-30T12:49:03.324Z,97.3
2019-01-30T12:50:03.446Z,100.8
2019-01-30T12:51:03.227Z,99.8
2019-01-30T12:52:03.072Z,99.8
2019-01-30T12:53:03.275Z,99.1
2019-01-30T12:54:03.591Z,99.1
2019-01-30T12:55:03.227Z,94.9
2019-01-30T12:56:02.897Z,96.1
2019-01-30T12:57:03.050Z,93.8
2019-01-30T12:58:02.870Z,92.8
2019-01-30T12:59:02.905Z,92.8
2019-01-30T13:00:03.612Z,92.1
2019-01-30T13:01:03.208Z,93.8
2019-01-30T13:02:03.440Z,92.4
2019-01-30T13:03:03.937Z,94
2019-01-30T13:04:03.322Z,93.1
2019-01-30T13:05:03.824Z,94.7
2019-01-30T13:06:03.178Z,95.6
2019-01-30T13:07:03.518Z,94.7
2019-01-30T13:08:03.353Z,96.6
2019-01-30T13:09:03.614Z,97.3
2019-01-30T13:10:03.313Z,97.7
2019-01-30T13:11:03.352Z,97
2019-01-30T13:12:03.133Z,96.1
2019-01-30T13:13:02.851Z,97
2019-01-30T13:14:02.835Z,95.6
2019-01-30T13:15:03.304Z,97.5
2019-01-30T13:16:03.089Z,98
2019-01-30T13:17:02.864Z,98.9
2019-01-30T13:18:18.785Z,97.7
2019-01-30T13:19:03.732Z,98.2
2019-01-30T13:20:03.014Z,96.8
2019-01-30T13:21:03.019Z,97.5
2019-01-30T13:22:02.898Z,98
2019-01-30T13:23:03.595Z,98